createdAt,value
2022-10-11T00:00:22.812Z,99.99
2022-10-11T00:01:22.866Z,99.99
2022-10-11T00:02:25.219Z,99.99
2022-10-11T00:03:22.779Z,99.99
2022-10-11T00:04:22.793Z,99.99
2022-10-11T00:05:22.777Z,99.99
2022-10-11T00:06:22.747Z,99.99
2022-10-11T00:07:22.734Z,99.99
2022-10-11T00:08:22.717Z,99.99
2022-10-11T00:09:22.729Z,99.99
2022-10-11T00:10:22.706Z,99.99
2022-10-11T00:11:22.693Z,99.99
2022-10-11T00:12:22.680Z,99.99
2022-10-11T00:13:22.664Z,99.99
2022-10-11T00:14:22.675Z,99.99
2022-10-11T00:15:22.645Z,99.99
2022-10-11T00:16:22.649Z,99.99
2022-10-11T00:17:22.632Z,99.99
2022-10-11T00:18:22.618Z,99.99
2022-10-11T00:19:30.575Z,99.99
2022-10-11T00:20:22.589Z,99.99
2022-10-11T00:21:22.578Z,99.99
2022-10-11T00:22:22.564Z,99.99
2022-10-11T00:23:22.551Z,99.99
2022-10-11T00:24:22.566Z,99.99
2022-10-11T00:25:22.546Z,99.99
2022-10-11T00:26:22.542Z,99.99
2022-10-11T00:27:22.501Z,99.99
2022-10-11T00:28:22.579Z,99.99
2022-10-11T00:29:22.500Z,99.99
2022-10-11T00:30:22.487Z,99.99
2022-10-11T00:31:22.494Z,99.99
2022-10-11T00:32:22.480Z,99.99
2022-10-11T00:33:22.483Z,99.99
2022-10-11T00:34:22.443Z,99.99
2022-10-11T00:35:22.434Z,99.99
2022-10-11T00:36:22.438Z,99.99
2022-10-11T00:37:22.395Z,99.99
2022-10-11T00:38:22.396Z,99.99
2022-10-11T00:39:22.391Z,99.99
2022-10-11T00:40:22.377Z,99.99
2022-10-11T00:41:22.355Z,99.99
2022-10-11T00:42:22.340Z,99.99
2022-10-11T00:43:22.344Z,99.99
2022-10-11T00:44:22.343Z,99.99
2022-10-11T00:45:22.313Z,99.99
2022-10-11T00:46:22.343Z,99.99
2022-10-11T00:47:22.285Z,99.99
2022-10-11T00:48:22.275Z,99.99
2022-10-11T00:49:22.277Z,99.99
2022-10-11T00:50:22.294Z,99.99
2022-10-11T00:51:22.240Z,99.99
2022-10-11T00:52:22.238Z,99.99
2022-10-11T00:53:22.213Z,99.99
2022-10-11T00:54:22.265Z,99.99
2022-10-11T00:55:22.202Z,99.99
2022-10-11T00:56:22.183Z,99.99
2022-10-11T00:57:22.167Z,99.99
2022-10-11T00:58:22.184Z,99.99
2022-10-11T00:59:22.185Z,99.99
2022-10-11T01:00:22.153Z,99.99
2022-10-11T01:01:22.177Z,99.99
2022-10-11T01:02:22.159Z,99.99
2022-10-11T01:03:22.105Z,99.99
2022-10-11T01:04:22.088Z,99.99
2022-10-11T01:05:30.357Z,99.99
2022-10-11T01:06:22.082Z,99.99
2022-10-11T01:07:22.121Z,99.99
2022-10-11T01:08:22.049Z,99.99
2022-10-11T01:09:22.064Z,99.99
2022-10-11T01:10:22.063Z,99.99
2022-10-11T01:11:22.017Z,99.99
2022-10-11T01:12:22.000Z,99.99
2022-10-11T01:13:22.002Z,99.99
2022-10-11T01:14:21.980Z,99.99
2022-10-11T01:15:22.017Z,99.99
2022-10-11T01:16:21.993Z,99.99
2022-10-11T01:17:21.951Z,99.99
2022-10-11T01:18:21.979Z,99.99
2022-10-11T01:19:21.927Z,99.99
2022-10-11T01:20:21.941Z,99.99
2022-10-11T01:21:21.902Z,99.99
2022-10-11T01:22:21.931Z,99.99
2022-10-11T01:23:21.887Z,99.99
2022-10-11T01:24:21.869Z,99.99
2022-10-11T01:25:21.904Z,99.99
2022-10-11T01:26:21.840Z,99.99
2022-10-11T01:27:21.839Z,99.99
2022-10-11T01:28:21.931Z,99.99
2022-10-11T01:29:21.861Z,99.99
2022-10-11T01:30:21.824Z,99.99
2022-10-11T01:31:21.800Z,99.99
2022-10-11T01:32:21.780Z,99.99
2022-10-11T01:33:21.801Z,99.99
2022-10-11T01:34:21.762Z,99.99
2022-10-11T01:35:21.760Z,99.99
2022-10-11T01:36:21.774Z,99.99
2022-10-11T01:37:21.724Z,99.99
2022-10-11T01:38:21.740Z,99.99
2022-10-11T01:39:21.711Z,99.99
2022-10-11T01:40:21.706Z,99.99
2022-10-11T01:41:21.707Z,99.99
2022-10-11T01:42:21.674Z,99.99
2022-10-11T01:43:21.667Z,99.99
2022-10-11T01:44:21.649Z,99.99
2022-10-11T01:45:21.647Z,99.99
2022-10-11T01:46:21.640Z,99.99
2022-10-11T01:47:21.628Z,99.99
2022-10-11T01:48:21.609Z,99.99
2022-10-11T01:49:21.589Z,99.99
2022-10-11T01:50:21.634Z,99.99
2022-10-11T01:51:21.614Z,99.99
2022-10-11T01:52:21.572Z,99.99
2022-10-11T01:53:21.551Z,99.99
2022-10-11T01:54:21.552Z,99.99
2022-10-11T01:55:21.603Z,99.99
2022-10-11T01:56:21.507Z,99.99
2022-10-11T01:57:21.504Z,99.99
2022-10-11T01:58:21.512Z,99.99
2022-10-11T01:59:20.471Z,99.99
2022-10-11T02:00:21.492Z,99.99
2022-10-11T02:01:21.512Z,99.99
2022-10-11T02:02:21.441Z,99.99
2022-10-11T02:03:21.433Z,99.99
2022-10-11T02:04:21.448Z,99.99
2022-10-11T02:05:21.433Z,99.99
2022-10-11T02:06:21.400Z,99.99
2022-10-11T02:07:21.388Z,99.99
2022-10-11T02:08:21.378Z,99.99
2022-10-11T02:09:21.366Z,99.99
2022-10-11T02:10:21.367Z,99.99
2022-10-11T02:11:21.357Z,99.99
2022-10-11T02:12:21.334Z,99.99
2022-10-11T02:13:21.397Z,99.99
2022-10-11T02:14:21.306Z,99.99
2022-10-11T02:15:21.328Z,99.99
2022-10-11T02:16:21.286Z,99.99
2022-10-11T02:17:21.276Z,99.99
2022-10-11T02:18:21.275Z,99.99
2022-10-11T02:19:21.253Z,99.99
2022-10-11T02:20:21.265Z,99.99
2022-10-11T02:21:21.232Z,99.99
2022-10-11T02:22:21.231Z,99.99
2022-10-11T02:23:21.215Z,99.99
2022-10-11T02:24:21.201Z,99.99
2022-10-11T02:25:21.197Z,99.99
2022-10-11T02:26:21.173Z,99.99
2022-10-11T02:27:21.183Z,99.99
2022-10-11T02:28:21.246Z,99.99
2022-10-11T02:29:21.137Z,99.99
2022-10-11T02:30:21.154Z,99.99
2022-10-11T02:31:21.133Z,99.99
2022-10-11T02:32:21.113Z,99.99
2022-10-11T02:33:21.100Z,99.99
2022-10-11T02:34:21.102Z,99.99
2022-10-11T02:35:21.126Z,99.99
2022-10-11T02:36:21.078Z,99.99
2022-10-11T02:37:21.080Z,99.99
2022-10-11T02:38:21.038Z,99.99
2022-10-11T02:39:21.030Z,99.99
2022-10-11T02:40:21.045Z,99.99
2022-10-11T02:41:21.002Z,99.99
2022-10-11T02:42:21.011Z,99.99
2022-10-11T02:43:20.980Z,99.99
2022-10-11T02:44:20.970Z,99.99
2022-10-11T02:45:20.979Z,99.99
2022-10-11T02:46:20.951Z,99.99
2022-10-11T02:47:20.923Z,99.99
2022-10-11T02:48:20.945Z,99.99
2022-10-11T02:49:20.916Z,99.99
2022-10-11T02:50:20.929Z,99.99
2022-10-11T02:51:20.901Z,99.99
2022-10-11T02:52:20.922Z,99.99
2022-10-11T02:53:20.866Z,99.99
2022-10-11T02:54:20.864Z,99.99
2022-10-11T02:55:20.891Z,99.99
2022-10-11T02:56:20.843Z,99.99
2022-10-11T02:57:20.841Z,99.99
2022-10-11T02:58:20.823Z,99.99
2022-10-11T02:59:20.808Z,99.99
2022-10-11T03:00:20.812Z,99.99
2022-10-11T03:01:20.861Z,99.99
2022-10-11T03:02:20.786Z,99.99
2022-10-11T03:03:20.776Z,99.99
2022-10-11T03:04:20.753Z,99.99
2022-10-11T03:05:20.807Z,99.99
2022-10-11T03:06:20.734Z,99.99
2022-10-11T03:07:20.713Z,99.99
2022-10-11T03:08:20.703Z,99.99
2022-10-11T03:09:20.728Z,99.99
2022-10-11T03:10:20.734Z,99.99
2022-10-11T03:11:20.673Z,99.99
2022-10-11T03:12:20.778Z,99.99
2022-10-11T03:13:20.653Z,99.99
2022-10-11T03:14:20.643Z,99.99
2022-10-11T03:15:20.645Z,99.99
2022-10-11T03:16:20.680Z,99.99
2022-10-11T03:17:35.649Z,99.99
2022-10-11T03:18:20.603Z,99.99
2022-10-11T03:19:20.577Z,99.99
2022-10-11T03:20:20.592Z,99.99
2022-10-11T03:21:20.566Z,99.99
2022-10-11T03:22:20.565Z,99.99
2022-10-11T03:23:20.531Z,99.99
2022-10-11T03:24:20.524Z,99.99
2022-10-11T03:25:20.558Z,99.99
2022-10-11T03:26:20.554Z,99.99
2022-10-11T03:27:20.494Z,99.99
2022-10-11T03:28:20.608Z,99.99
2022-10-11T03:29:20.485Z,99.99
2022-10-11T03:30:20.476Z,99.99
2022-10-11T03:31:20.449Z,99.99
2022-10-11T03:32:20.449Z,99.99
2022-10-11T03:33:20.425Z,99.99
2022-10-11T03:34:20.414Z,99.99
2022-10-11T03:35:20.424Z,99.99
2022-10-11T03:36:20.393Z,99.99
2022-10-11T03:37:20.397Z,99.99
2022-10-11T03:38:20.379Z,99.99
2022-10-11T03:39:20.357Z,99.99
2022-10-11T03:40:20.367Z,99.99
2022-10-11T03:41:20.362Z,99.99
2022-10-11T03:42:20.324Z,99.99
2022-10-11T03:43:20.307Z,99.99
2022-10-11T03:44:20.299Z,99.99
2022-10-11T03:45:20.320Z,99.99
2022-10-11T03:46:20.294Z,99.99
2022-10-11T03:47:20.269Z,99.99
2022-10-11T03:48:20.263Z,99.99
2022-10-11T03:49:20.250Z,99.99
2022-10-11T03:50:20.255Z,99.99
2022-10-11T03:51:20.240Z,99.99
2022-10-11T03:52:20.232Z,99.99
2022-10-11T03:53:20.208Z,99.99
2022-10-11T03:54:20.223Z,99.99
2022-10-11T03:55:20.180Z,99.99
2022-10-11T03:56:20.184Z,99.99
2022-10-11T03:57:20.181Z,99.99
2022-10-11T03:58:20.162Z,99.99
2022-10-11T03:59:20.136Z,99.99
2022-10-11T04:00:20.128Z,99.99
2022-10-11T04:01:20.217Z,99.99
2022-10-11T04:02:20.105Z,99.99
2022-10-11T04:03:20.104Z,99.99
2022-10-11T04:04:20.105Z,99.99
2022-10-11T04:05:20.079Z,99.99
2022-10-11T04:06:20.236Z,99.99
2022-10-11T04:07:20.072Z,99.99
2022-10-11T04:08:20.037Z,99.99
2022-10-11T04:09:20.029Z,99.99
2022-10-11T04:10:20.045Z,99.99
2022-10-11T04:11:20.022Z,99.99
2022-10-11T04:12:20.012Z,99.99
2022-10-11T04:13:19.977Z,99.99
2022-10-11T04:14:19.968Z,99.99
2022-10-11T04:15:19.972Z,99.99
2022-10-11T04:16:19.996Z,99.99
2022-10-11T04:17:19.933Z,99.99
2022-10-11T04:18:20.007Z,99.99
2022-10-11T04:19:19.923Z,99.99
2022-10-11T04:20:19.902Z,99.99
2022-10-11T04:21:19.931Z,99.99
2022-10-11T04:22:19.885Z,99.99
2022-10-11T04:23:19.865Z,99.99
2022-10-11T04:24:19.864Z,99.99
2022-10-11T04:25:19.854Z,99.99
2022-10-11T04:26:19.855Z,99.99
2022-10-11T04:27:19.829Z,99.99
2022-10-11T04:28:19.850Z,99.99
2022-10-11T04:29:19.812Z,99.99
2022-10-11T04:30:19.796Z,99.99
2022-10-11T04:31:19.807Z,99.99
2022-10-11T04:32:19.762Z,99.99
2022-10-11T04:33:19.764Z,99.99
2022-10-11T04:34:19.749Z,99.99
2022-10-11T04:35:19.731Z,99.99
2022-10-11T04:36:19.869Z,99.99
2022-10-11T04:37:19.707Z,99.99
2022-10-11T04:38:19.700Z,99.99
2022-10-11T04:39:19.727Z,99.99
2022-10-11T04:40:19.686Z,99.99
2022-10-11T04:41:19.691Z,99.99
2022-10-11T04:42:19.669Z,99.99
2022-10-11T04:43:19.665Z,99.99
2022-10-11T04:44:19.645Z,99.99
2022-10-11T04:45:19.632Z,99.99
2022-10-11T04:46:19.633Z,99.99
2022-10-11T04:47:19.640Z,99.99
2022-10-11T04:48:19.590Z,99.99
2022-10-11T04:49:19.576Z,99.99
2022-10-11T04:50:19.618Z,99.99
2022-10-11T04:51:19.567Z,99.99
2022-10-11T04:52:24.685Z,99.99
2022-10-11T04:53:19.565Z,99.99
2022-10-11T04:54:19.534Z,99.99
2022-10-11T04:55:19.543Z,99.99
2022-10-11T04:56:19.518Z,99.99
2022-10-11T04:57:19.497Z,99.99
2022-10-11T04:58:19.477Z,99.99
2022-10-11T04:59:19.473Z,99.99
2022-10-11T05:00:19.487Z,99.99
2022-10-11T05:01:19.466Z,99.99
2022-10-11T05:02:19.553Z,99.99
2022-10-11T05:03:19.422Z,99.99
2022-10-11T05:04:19.418Z,99.99
2022-10-11T05:05:19.435Z,99.99
2022-10-11T05:06:19.411Z,99.99
2022-10-11T05:07:19.384Z,99.99
2022-10-11T05:08:19.361Z,99.99
2022-10-11T05:09:19.357Z,99.99
2022-10-11T05:10:19.373Z,99.99
2022-10-11T05:11:19.371Z,99.99
2022-10-11T05:12:19.322Z,99.99
2022-10-11T05:13:19.342Z,99.99
2022-10-11T05:14:19.299Z,99.99
2022-10-11T05:15:19.292Z,99.99
2022-10-11T05:16:19.315Z,99.99
2022-10-11T05:17:19.268Z,99.99
2022-10-11T05:18:19.255Z,99.99
2022-10-11T05:19:19.241Z,99.99
2022-10-11T05:20:19.239Z,99.99
2022-10-11T05:21:19.234Z,99.99
2022-10-11T05:22:19.214Z,99.99
2022-10-11T05:23:19.209Z,99.99
2022-10-11T05:24:19.187Z,99.99
2022-10-11T05:25:19.176Z,99.99
2022-10-11T05:26:19.212Z,99.99
2022-10-11T05:27:19.153Z,99.99
2022-10-11T05:28:19.213Z,99.99
2022-10-11T05:29:19.147Z,99.99
2022-10-11T05:30:19.152Z,99.99
2022-10-11T05:31:19.129Z,99.99
2022-10-11T05:32:19.105Z,99.99
2022-10-11T05:33:19.089Z,99.99
2022-10-11T05:34:19.076Z,99.99
2022-10-11T05:35:19.072Z,99.99
2022-10-11T05:36:19.104Z,99.99
2022-10-11T05:37:19.037Z,99.99
2022-10-11T05:38:19.035Z,99.99
2022-10-11T05:39:19.031Z,99.99
2022-10-11T05:40:19.022Z,99.99
2022-10-11T05:41:19.330Z,99.99
2022-10-11T05:42:19.244Z,99.99
2022-10-11T05:43:18.976Z,99.99
2022-10-11T05:44:18.969Z,99.99
2022-10-11T05:45:18.984Z,99.99
2022-10-11T05:46:18.954Z,99.99
2022-10-11T05:47:18.943Z,99.99
2022-10-11T05:48:18.917Z,99.99
2022-10-11T05:49:18.947Z,99.99
2022-10-11T05:50:24.014Z,99.99
2022-10-11T05:51:19.041Z,99.99
2022-10-11T05:52:18.880Z,99.99
2022-10-11T05:53:18.866Z,99.99
2022-10-11T05:54:18.915Z,99.99
2022-10-11T05:55:18.847Z,99.99
2022-10-11T05:56:18.852Z,99.99
2022-10-11T05:57:18.848Z,99.99
2022-10-11T05:58:18.832Z,99.99
2022-10-11T05:59:18.797Z,99.99
2022-10-11T06:00:18.784Z,99.99
2022-10-11T06:01:18.897Z,99.99
2022-10-11T06:02:18.773Z,99.99
2022-10-11T06:03:18.754Z,99.99
2022-10-11T06:04:18.771Z,99.99
2022-10-11T06:05:18.731Z,99.99
2022-10-11T06:06:18.742Z,99.99
2022-10-11T06:07:18.711Z,99.99
2022-10-11T06:08:18.707Z,99.99
2022-10-11T06:09:18.683Z,99.99
2022-10-11T06:10:18.680Z,99.99
2022-10-11T06:11:18.695Z,99.99
2022-10-11T06:12:18.667Z,99.99
2022-10-11T06:13:18.647Z,99.99
2022-10-11T06:14:18.633Z,99.99
2022-10-11T06:15:18.614Z,99.99
2022-10-11T06:16:18.628Z,99.99
2022-10-11T06:17:18.594Z,99.99
2022-10-11T06:18:18.590Z,99.99
2022-10-11T06:19:25.133Z,99.99
2022-10-11T06:20:18.562Z,99.99
2022-10-11T06:21:18.564Z,99.99
2022-10-11T06:22:18.544Z,99.99
2022-10-11T06:23:18.530Z,99.99
2022-10-11T06:24:18.527Z,99.99
2022-10-11T06:25:18.530Z,99.99
2022-10-11T06:26:18.544Z,99.99
2022-10-11T06:27:18.493Z,99.99
2022-10-11T06:28:18.535Z,99.99
2022-10-11T06:29:18.509Z,99.99
2022-10-11T06:30:18.474Z,99.99
2022-10-11T06:31:18.495Z,99.99
2022-10-11T06:32:18.437Z,99.99
2022-10-11T06:33:18.435Z,99.99
2022-10-11T06:34:18.417Z,99.99
2022-10-11T06:35:18.405Z,99.99
2022-10-11T06:36:18.409Z,99.99
2022-10-11T06:37:18.372Z,99.99
2022-10-11T06:38:18.372Z,99.99
2022-10-11T06:39:18.354Z,99.99
2022-10-11T06:40:18.342Z,99.99
2022-10-11T06:41:18.351Z,99.99
2022-10-11T06:42:18.325Z,99.99
2022-10-11T06:43:18.310Z,99.99
2022-10-11T06:44:18.293Z,99.99
2022-10-11T06:45:18.306Z,99.99
2022-10-11T06:46:18.298Z,99.99
2022-10-11T06:47:18.272Z,99.99
2022-10-11T06:48:18.257Z,99.99
2022-10-11T06:49:22.962Z,99.99
2022-10-11T06:50:29.954Z,99.99
2022-10-11T06:51:18.237Z,99.99
2022-10-11T06:52:18.219Z,99.99
2022-10-11T06:53:18.194Z,99.99
2022-10-11T06:54:18.189Z,99.99
2022-10-11T06:55:18.174Z,99.99
2022-10-11T06:56:18.177Z,99.99
2022-10-11T06:57:18.160Z,99.99
2022-10-11T06:58:18.142Z,99.99
2022-10-11T06:59:18.130Z,99.99
2022-10-11T07:00:18.127Z,99.99
2022-10-11T07:01:18.174Z,99.99
2022-10-11T07:02:18.087Z,99.99
2022-10-11T07:03:18.086Z,99.99
2022-10-11T07:04:18.076Z,99.99
2022-10-11T07:05:18.061Z,99.99
2022-10-11T07:06:22.208Z,99.99
2022-10-11T07:07:18.040Z,99.99
2022-10-11T07:08:18.032Z,99.99
2022-10-11T07:09:18.022Z,99.99
2022-10-11T07:10:18.022Z,99.99
2022-10-11T07:11:18.012Z,99.99
2022-10-11T07:12:17.991Z,99.99
2022-10-11T07:13:17.973Z,99.99
2022-10-11T07:14:17.968Z,99.99
2022-10-11T07:15:17.959Z,99.99
2022-10-11T07:16:17.955Z,99.99
2022-10-11T07:17:17.943Z,99.99
2022-10-11T07:18:17.929Z,99.99
2022-10-11T07:19:17.907Z,99.99
2022-10-11T07:20:17.903Z,99.99
2022-10-11T07:21:17.906Z,99.99
2022-10-11T07:22:17.882Z,99.99
2022-10-11T07:23:17.878Z,99.99
2022-10-11T07:24:17.852Z,99.99
2022-10-11T07:25:17.837Z,99.99
2022-10-11T07:26:17.855Z,99.99
2022-10-11T07:27:17.825Z,99.99
2022-10-11T07:28:17.890Z,99.99
2022-10-11T07:29:17.786Z,99.99
2022-10-11T07:30:17.824Z,99.99
2022-10-11T07:31:18.352Z,99.99
2022-10-11T07:32:17.785Z,99.99
2022-10-11T07:33:17.769Z,99.99
2022-10-11T07:34:17.738Z,99.99
2022-10-11T07:35:17.737Z,99.99
2022-10-11T07:36:17.718Z,99.99
2022-10-11T07:37:17.732Z,99.99
2022-10-11T07:38:17.704Z,99.99
2022-10-11T07:39:17.688Z,99.99
2022-10-11T07:40:17.670Z,99.99
2022-10-11T07:41:17.665Z,99.99
2022-10-11T07:42:17.694Z,99.99
2022-10-11T07:43:17.652Z,99.99
2022-10-11T07:44:17.630Z,99.99
2022-10-11T07:45:17.614Z,99.99
2022-10-11T07:46:17.609Z,99.99
2022-10-11T07:47:17.602Z,99.99
2022-10-11T07:48:17.597Z,99.99
2022-10-11T07:49:17.574Z,99.99
2022-10-11T07:50:17.566Z,99.99
2022-10-11T07:51:17.569Z,99.99
2022-10-11T07:52:17.662Z,99.99
2022-10-11T07:53:17.541Z,99.99
2022-10-11T07:54:17.536Z,99.99
2022-10-11T07:55:17.553Z,99.99
2022-10-11T07:56:17.541Z,99.99
2022-10-11T07:57:17.510Z,99.99
2022-10-11T07:58:17.472Z,99.99
2022-10-11T07:59:17.462Z,99.99
2022-10-11T08:00:17.492Z,99.99
2022-10-11T08:01:17.549Z,99.99
2022-10-11T08:02:17.468Z,99.99
2022-10-11T08:03:17.447Z,99.99
2022-10-11T08:04:17.400Z,99.99
2022-10-11T08:05:17.427Z,99.99
2022-10-11T08:06:17.383Z,99.99
2022-10-11T08:07:17.406Z,99.99
2022-10-11T08:08:17.363Z,99.99
2022-10-11T08:09:17.356Z,99.99
2022-10-11T08:10:17.353Z,99.99
2022-10-11T08:11:17.320Z,99.99
2022-10-11T08:12:17.335Z,99.99
2022-10-11T08:13:17.304Z,99.99
2022-10-11T08:14:17.295Z,99.99
2022-10-11T08:15:17.308Z,99.99
2022-10-11T08:16:17.274Z,99.99
2022-10-11T08:17:17.279Z,99.99
2022-10-11T08:18:17.251Z,99.99
2022-10-11T08:19:17.246Z,99.99
2022-10-11T08:20:17.243Z,99.99
2022-10-11T08:21:17.209Z,99.99
2022-10-11T08:22:17.223Z,99.99
2022-10-11T08:23:17.187Z,99.99
2022-10-11T08:24:17.191Z,99.99
2022-10-11T08:25:17.166Z,99.99
2022-10-11T08:26:17.206Z,99.99
2022-10-11T08:27:17.197Z,99.99
2022-10-11T08:28:17.413Z,99.99
2022-10-11T08:29:17.179Z,99.99
2022-10-11T08:30:17.187Z,99.99
2022-10-11T08:31:17.130Z,99.99
2022-10-11T08:32:17.106Z,99.99
2022-10-11T08:33:17.113Z,99.99
2022-10-11T08:34:17.075Z,99.99
2022-10-11T08:35:17.072Z,99.99
2022-10-11T08:36:17.083Z,99.99
2022-10-11T08:37:17.089Z,99.99
2022-10-11T08:38:17.044Z,99.99
2022-10-11T08:39:17.069Z,99.99
2022-10-11T08:40:17.034Z,99.99
2022-10-11T08:41:16.988Z,99.99
2022-10-11T08:42:17.015Z,99.99
2022-10-11T08:43:17.000Z,99.99
2022-10-11T08:44:16.980Z,99.99
2022-10-11T08:45:16.966Z,99.99
2022-10-11T08:46:16.949Z,99.99
2022-10-11T08:47:16.962Z,99.99
2022-10-11T08:48:16.976Z,99.99
2022-10-11T08:49:16.937Z,99.99
2022-10-11T08:50:16.887Z,99.99
2022-10-11T08:51:16.924Z,99.99
2022-10-11T08:52:16.911Z,99.99
2022-10-11T08:53:16.893Z,99.99
2022-10-11T08:54:16.868Z,99.99
2022-10-11T08:55:16.837Z,99.99
2022-10-11T08:56:16.829Z,99.99
2022-10-11T08:57:16.839Z,99.99
2022-10-11T08:58:16.812Z,99.99
2022-10-11T08:59:16.787Z,99.99
2022-10-11T09:00:16.789Z,99.99
2022-10-11T09:01:16.847Z,99.99
2022-10-11T09:02:16.806Z,99.99
2022-10-11T09:03:16.767Z,99.99
2022-10-11T09:04:16.774Z,99.99
2022-10-11T09:05:16.726Z,99.99
2022-10-11T09:06:16.733Z,99.99
2022-10-11T09:07:16.722Z,99.99
2022-10-11T09:08:16.714Z,99.99
2022-10-11T09:09:16.678Z,99.99
2022-10-11T09:10:16.694Z,99.99
2022-10-11T09:11:16.677Z,99.99
2022-10-11T09:12:16.688Z,99.99
2022-10-11T09:13:16.644Z,99.99
2022-10-11T09:14:16.632Z,99.99
2022-10-11T09:15:16.611Z,99.99
2022-10-11T09:16:16.712Z,99.99
2022-10-11T09:17:16.616Z,99.99
2022-10-11T09:18:16.589Z,99.99
2022-10-11T09:19:16.585Z,99.99
2022-10-11T09:20:16.580Z,99.99
2022-10-11T09:21:16.561Z,99.99
2022-10-11T09:22:16.568Z,99.99
2022-10-11T09:23:16.554Z,99.99
2022-10-11T09:24:16.520Z,99.99
2022-10-11T09:25:16.511Z,99.99
2022-10-11T09:26:16.538Z,99.99
2022-10-11T09:27:16.500Z,99.99
2022-10-11T09:28:16.531Z,99.99
2022-10-11T09:29:16.470Z,99.99
2022-10-11T09:30:16.441Z,99.78
2022-10-11T09:31:16.484Z,99.78
2022-10-11T09:32:16.453Z,99.99
2022-10-11T09:33:16.418Z,99.99
2022-10-11T09:34:16.434Z,99.99
2022-10-11T09:35:16.403Z,99.99
2022-10-11T09:36:16.401Z,99.99
2022-10-11T09:37:16.386Z,99.99
2022-10-11T09:38:16.385Z,99.99
2022-10-11T09:39:16.390Z,99.99
2022-10-11T09:40:16.397Z,99.99
2022-10-11T09:41:16.331Z,99.06
2022-10-11T09:42:16.374Z,98.91
2022-10-11T09:43:16.303Z,98.71
2022-10-11T09:44:16.347Z,98.91
2022-10-11T09:45:16.295Z,99.18
2022-10-11T09:46:16.286Z,99.27
2022-10-11T09:47:16.283Z,99.38
2022-10-11T09:48:16.258Z,99.68
2022-10-11T09:49:16.265Z,99.79
2022-10-11T09:50:16.217Z,99.89
2022-10-11T09:51:16.212Z,99.79
2022-10-11T09:52:16.218Z,99.68
2022-10-11T09:53:16.192Z,99.48
2022-10-11T09:54:16.211Z,99.18
2022-10-11T09:55:19.617Z,98.86
2022-10-11T09:56:16.195Z,98.56
2022-10-11T09:57:16.199Z,98.56
2022-10-11T09:58:16.182Z,98.36
2022-10-11T09:59:16.184Z,98.36
2022-10-11T10:00:16.116Z,98.86
2022-10-11T10:01:16.211Z,98.77
2022-10-11T10:02:16.123Z,97.85
2022-10-11T10:03:16.106Z,97.44
2022-10-11T10:04:16.126Z,97.13
2022-10-11T10:05:16.094Z,96.88
2022-10-11T10:06:16.057Z,96.47
2022-10-11T10:07:16.074Z,96.37
2022-10-11T10:08:16.048Z,97.04
2022-10-11T10:09:16.086Z,95.92
2022-10-11T10:10:16.016Z,95.81
2022-10-11T10:11:16.038Z,95.72
2022-10-11T10:12:16.061Z,95.10
2022-10-11T10:13:15.975Z,95.31
2022-10-11T10:14:15.985Z,95.41
2022-10-11T10:15:15.958Z,95.41
2022-10-11T10:16:15.939Z,95.36
2022-10-11T10:17:16.081Z,95.77
2022-10-11T10:18:15.918Z,95.97
2022-10-11T10:19:15.918Z,95.92
2022-10-11T10:20:15.904Z,96.02
2022-10-11T10:21:15.878Z,95.57
2022-10-11T10:22:15.895Z,95.06
2022-10-11T10:23:15.849Z,95.06
2022-10-11T10:24:15.850Z,95.16
2022-10-11T10:25:15.839Z,95.16
2022-10-11T10:26:15.829Z,95.12
2022-10-11T10:27:15.829Z,95.01
2022-10-11T10:28:15.852Z,94.91
2022-10-11T10:29:15.788Z,93.79
2022-10-11T10:30:15.999Z,93.54
2022-10-11T10:31:15.762Z,92.22
2022-10-11T10:32:15.789Z,92.38
2022-10-11T10:33:15.745Z,91.46
2022-10-11T10:34:15.742Z,90.50
2022-10-11T10:35:15.720Z,90.50
2022-10-11T10:36:15.708Z,91.07
2022-10-11T10:37:15.723Z,91.07
2022-10-11T10:38:15.694Z,91.68
2022-10-11T10:39:15.677Z,92.25
2022-10-11T10:40:15.717Z,89.20
2022-10-11T10:41:15.656Z,89.50
2022-10-11T10:42:15.668Z,89.91
2022-10-11T10:43:15.688Z,89.91
2022-10-11T10:44:15.625Z,91.60
2022-10-11T10:45:20.825Z,90.78
2022-10-11T10:46:15.603Z,91.49
2022-10-11T10:47:15.611Z,91.90
2022-10-11T10:48:15.577Z,91.80
2022-10-11T10:50:15.623Z,91.09
2022-10-11T10:51:15.559Z,91.19
2022-10-11T10:52:15.557Z,91.90
2022-10-11T10:53:15.535Z,92.21
2022-10-11T10:54:15.538Z,92.00
2022-10-11T10:55:15.508Z,92.41
2022-10-11T10:56:15.489Z,92.41
2022-10-11T10:57:15.507Z,91.69
2022-10-11T10:58:18.748Z,89.87
2022-10-11T10:59:15.469Z,88.91
2022-10-11T11:00:15.659Z,89.22
2022-10-11T11:01:15.493Z,90.44
2022-10-11T11:02:38.882Z,90.49
2022-10-11T11:03:15.445Z,90.19
2022-10-11T11:04:15.438Z,91.10
2022-10-11T11:05:15.418Z,90.49
2022-10-11T11:06:15.378Z,90.59
2022-10-11T11:07:15.386Z,86.63
2022-10-11T11:08:15.358Z,83.69
2022-10-11T11:09:15.392Z,84.50
2022-10-11T11:10:15.336Z,86.43
2022-10-11T11:11:15.333Z,88.36
2022-10-11T11:12:15.335Z,89.07
2022-10-11T11:13:15.315Z,87.24
2022-10-11T11:14:15.324Z,87.75
2022-10-11T11:15:15.286Z,87.79
2022-10-11T11:16:15.297Z,87.89
2022-10-11T11:17:15.325Z,88.10
2022-10-11T11:18:15.254Z,88.60
2022-10-11T11:19:15.231Z,88.20
2022-10-11T11:20:15.238Z,88.20
2022-10-11T11:21:15.206Z,88.30
2022-10-11T11:22:15.234Z,88.60
2022-10-11T11:23:15.187Z,88.81
2022-10-11T11:24:15.204Z,87.45
2022-10-11T11:25:15.158Z,88.36
2022-10-11T11:26:15.209Z,89.88
2022-10-11T11:27:15.242Z,86.83
2022-10-11T11:28:15.192Z,87.51
2022-10-11T11:29:15.140Z,89.64
2022-10-11T11:30:15.138Z,89.74
2022-10-11T11:31:15.131Z,89.03
2022-10-11T11:32:15.125Z,89.03
2022-10-11T11:33:15.123Z,85.58
2022-10-11T11:34:15.064Z,84.87
2022-10-11T11:35:15.055Z,86.25
2022-10-11T11:36:15.043Z,86.76
2022-10-11T11:37:15.051Z,85.84
2022-10-11T11:38:15.040Z,85.19
2022-10-11T11:39:15.038Z,84.18
2022-10-11T11:40:14.995Z,85.19
2022-10-11T11:41:15.034Z,86.82
2022-10-11T11:42:15.002Z,83.98
2022-10-11T11:43:14.997Z,82.66
2022-10-11T11:44:14.995Z,83.47
2022-10-11T11:45:14.956Z,83.37
2022-10-11T11:46:14.944Z,84.28
2022-10-11T11:47:14.964Z,82.15
2022-10-11T11:48:14.934Z,82.76
2022-10-11T11:49:14.893Z,83.67
2022-10-11T11:50:14.895Z,83.51
2022-10-11T11:51:14.896Z,83.31
2022-10-11T11:52:14.905Z,83.31
2022-10-11T11:53:14.858Z,84.01
2022-10-11T11:54:14.854Z,85.74
2022-10-11T11:55:14.840Z,83.71
2022-10-11T11:56:14.817Z,83.85
2022-10-11T11:57:14.844Z,83.95
2022-10-11T11:58:14.790Z,84.87
2022-10-11T11:59:14.798Z,85.27
2022-10-11T12:00:14.838Z,85.38
2022-10-11T12:01:14.883Z,85.47
2022-10-11T12:02:14.897Z,85.11
2022-10-11T12:03:14.790Z,85.92
2022-10-11T12:04:14.764Z,86.02
2022-10-11T12:05:14.768Z,86.53
2022-10-11T12:06:14.780Z,86.43
2022-10-11T12:07:17.103Z,85.82
2022-10-11T12:08:14.725Z,86.02
2022-10-11T12:09:14.688Z,86.94
2022-10-11T12:10:14.702Z,85.96
2022-10-11T12:11:14.685Z,86.16
2022-10-11T12:12:14.701Z,85.96
2022-10-11T12:13:14.634Z,85.66
2022-10-11T12:14:14.628Z,85.96
2022-10-11T12:15:14.604Z,86.07
2022-10-11T12:16:14.637Z,85.76
2022-10-11T12:17:14.604Z,86.68
2022-10-11T12:18:14.574Z,87.24
2022-10-11T12:19:14.567Z,86.83
2022-10-11T12:20:22.170Z,85.62
2022-10-11T12:21:14.537Z,85.82
2022-10-11T12:22:14.548Z,86.22
2022-10-11T12:23:19.729Z,86.02
2022-10-11T12:24:14.592Z,85.82
2022-10-11T12:25:18.363Z,85.82
2022-10-11T12:26:14.500Z,85.78
2022-10-11T12:27:14.510Z,85.07
2022-10-11T12:28:14.541Z,85.38
2022-10-11T12:29:14.452Z,85.38
2022-10-11T12:30:14.442Z,85.17
2022-10-11T12:31:14.418Z,84.87
2022-10-11T12:32:14.426Z,84.66
2022-10-11T12:33:14.415Z,84.56
2022-10-11T12:34:14.394Z,84.93
2022-10-11T12:35:14.391Z,85.03
2022-10-11T12:36:14.956Z,85.03
2022-10-11T12:37:14.384Z,84.72
2022-10-11T12:38:14.370Z,85.53
2022-10-11T12:39:14.337Z,85.13
2022-10-11T12:40:14.326Z,84.32
2022-10-11T12:41:14.350Z,83.98
2022-10-11T12:42:14.310Z,83.47
2022-10-11T12:43:14.328Z,83.57
2022-10-11T12:44:14.291Z,84.18
2022-10-11T12:45:14.271Z,83.17
2022-10-11T12:46:14.264Z,83.37
2022-10-11T12:47:14.256Z,84.08
2022-10-11T12:48:14.260Z,84.38
2022-10-11T12:49:14.230Z,84.48
2022-10-11T12:50:14.216Z,84.28
2022-10-11T12:51:14.224Z,84.18
2022-10-11T12:52:14.216Z,84.34
2022-10-11T12:53:14.210Z,83.12